createdAt,value
2018-09-02T00:01:50.259Z,102398.70
2018-09-02T00:04:18.399Z,102397.62
2018-09-02T00:06:46.504Z,102395.68
2018-09-02T00:09:14.626Z,102396.72
2018-09-02T00:11:42.765Z,102395.27
2018-09-02T00:14:10.891Z,102398.80
2018-09-02T00:16:38.982Z,102402.45
2018-09-02T00:19:07.063Z,102396.41
2018-09-02T00:21:35.230Z,102401.42
2018-09-02T00:24:03.355Z,102401.78
2018-09-02T00:26:31.479Z,102404.27
2018-09-02T00:28:59.575Z,102405.84
2018-09-02T00:31:27.724Z,102406.56
2018-09-02T00:33:55.931Z,102400.83
2018-09-02T00:36:24.012Z,102400.78
2018-09-02T00:38:52.126Z,102404.06
2018-09-02T00:41:20.250Z,102399.52
2018-09-02T00:48:48.752Z,102400.83
2018-09-02T00:51:16.836Z,102403.50
2018-09-02T00:53:44.988Z,102393.61
2018-09-02T00:56:13.160Z,102396.18
2018-09-02T00:58:41.240Z,102401.52
2018-09-02T01:01:09.380Z,102400.16
2018-09-02T01:03:37.521Z,102394.73
2018-09-02T01:06:05.856Z,102397.27
2018-09-02T01:08:33.973Z,102397.94
2018-09-02T01:11:02.107Z,102399.73
2018-09-02T01:13:30.215Z,102401.72
2018-09-02T01:15:58.319Z,102397.66
2018-09-02T01:18:26.444Z,102393.69
2018-09-02T01:20:54.574Z,102393.36
2018-09-02T01:23:22.731Z,102390.27
2018-09-02T01:25:50.891Z,102396.86
2018-09-02T01:28:19.071Z,102393.38
2018-09-02T01:30:47.171Z,102394.41
2018-09-02T01:33:15.309Z,102396.42
2018-09-02T01:35:43.417Z,102402.19
2018-09-02T01:38:11.564Z,102407.95
2018-09-02T01:40:39.707Z,102411.92
2018-09-02T01:43:07.802Z,102406.16
2018-09-02T01:45:35.913Z,102402.03
2018-09-02T01:48:04.139Z,102405.14
2018-09-02T01:50:32.295Z,102409.51
2018-09-02T01:53:00.387Z,102407.71
2018-09-02T01:55:28.527Z,102412.33
2018-09-02T01:57:56.638Z,102414.29
2018-09-02T02:00:24.781Z,102405.86
2018-09-02T02:02:52.860Z,102417.17
2018-09-02T02:05:20.985Z,102411.33
2018-09-02T02:07:49.147Z,102418.77
2018-09-02T02:10:17.293Z,102412.63
2018-09-02T02:12:45.420Z,102419.77
2018-09-02T02:15:13.539Z,102418.47
2018-09-02T02:17:41.666Z,102416.71
2018-09-02T02:20:09.764Z,102414.20
2018-09-02T02:22:37.887Z,102409.13
2018-09-02T02:25:05.999Z,102418.98
2018-09-02T02:27:34.090Z,102410.76
2018-09-02T02:30:02.251Z,102421.30
2018-09-02T02:32:30.345Z,102428.20
2018-09-02T02:34:58.436Z,102426.41
2018-09-02T02:37:26.559Z,102419.46
2018-09-02T02:39:54.689Z,102415.73
2018-09-02T02:42:22.804Z,102413.74
2018-09-02T02:44:50.951Z,102416.92
2018-09-02T02:47:19.034Z,102417.82
2018-09-02T02:49:47.177Z,102418.12
2018-09-02T02:52:16.189Z,102418.98
2018-09-02T02:54:44.324Z,102417.82
2018-09-02T02:57:12.510Z,102417.08
2018-09-02T02:59:40.665Z,102422.80
2018-09-02T03:02:08.820Z,102420.66
2018-09-02T03:04:39.872Z,102417.13
2018-09-02T03:07:07.975Z,102418.20
2018-09-02T03:09:36.093Z,102420.03
2018-09-02T03:12:04.186Z,102420.89
2018-09-02T03:14:32.285Z,102413.13
2018-09-02T03:17:00.448Z,102416.52
2018-09-02T03:19:28.556Z,102414.84
2018-09-02T03:22:03.426Z,102411.00
2018-09-02T03:24:31.558Z,102408.01
2018-09-02T03:26:59.619Z,102402.14
2018-09-02T03:29:27.744Z,102408.42
2018-09-02T03:31:55.841Z,102410.62
2018-09-02T03:34:23.948Z,102410.20
2018-09-02T03:36:52.055Z,102406.47
2018-09-02T03:39:20.184Z,102412.03
2018-09-02T03:41:48.291Z,102417.56
2018-09-02T03:44:16.413Z,102418.70
2018-09-02T03:46:44.523Z,102417.89
2018-09-02T03:49:12.643Z,102414.97
2018-09-02T03:51:40.840Z,102410.56
2018-09-02T03:54:08.978Z,102407.44
2018-09-02T03:56:37.067Z,102407.36
2018-09-02T03:59:05.233Z,102402.95
2018-09-02T04:01:33.316Z,102412.66
2018-09-02T04:04:01.467Z,102408.73
2018-09-02T04:06:29.558Z,102407.47
2018-09-02T04:08:57.685Z,102405.16
2018-09-02T04:11:25.979Z,102410.38
2018-09-02T04:13:54.032Z,102409.97
2018-09-02T04:16:22.111Z,102399.97
2018-09-02T04:18:50.236Z,102399.52
2018-09-02T04:21:18.350Z,102402.62
2018-09-02T04:23:47.019Z,102402.17
2018-09-02T04:26:15.152Z,102406.73
2018-09-02T04:28:43.248Z,102402.26
2018-09-02T04:31:11.372Z,102395.03
2018-09-02T04:33:39.566Z,102395.75
2018-09-02T04:36:07.608Z,102394.79
2018-09-02T04:38:35.702Z,102397.85
2018-09-02T04:41:03.829Z,102394.45
2018-09-02T04:43:31.952Z,102401.91
2018-09-02T04:46:00.048Z,102396.78
2018-09-02T04:48:28.151Z,102404.14
2018-09-02T04:50:56.275Z,102407.03
2018-09-02T04:53:24.357Z,102407.58
2018-09-02T04:55:52.470Z,102402.39
2018-09-02T04:58:20.563Z,102410.42
2018-09-02T05:00:48.635Z,102410.33
2018-09-02T05:03:16.751Z,102406.20
2018-09-02T05:05:44.874Z,102411.19
2018-09-02T05:08:13.000Z,102401.97
2018-09-02T05:10:41.121Z,102403.20
2018-09-02T05:13:09.235Z,102400.69
2018-09-02T05:15:37.364Z,102405.43
2018-09-02T05:18:05.515Z,102406.48
2018-09-02T05:20:33.599Z,102405.36
2018-09-02T05:23:01.731Z,102406.52
2018-09-02T05:25:29.864Z,102401.32
2018-09-02T05:27:57.960Z,102408.64
2018-09-02T05:30:26.063Z,102406.13
2018-09-02T05:32:54.171Z,102409.95
2018-09-02T05:35:22.299Z,102407.58
2018-09-02T05:37:50.407Z,102409.73
2018-09-02T05:40:18.529Z,102407.55
2018-09-02T05:42:46.672Z,102417.48
2018-09-02T05:45:14.795Z,102417.31
2018-09-02T05:47:42.908Z,102416.09
2018-09-02T05:50:11.008Z,102409.08
2018-09-02T05:52:39.133Z,102407.16
2018-09-02T05:55:07.392Z,102411.05
2018-09-02T05:57:35.666Z,102413.29
2018-09-02T06:00:03.837Z,102410.25
2018-09-02T06:02:31.951Z,102409.47
2018-09-02T06:05:00.021Z,102410.80
2018-09-02T06:07:28.142Z,102412.94
2018-09-02T06:09:56.776Z,102411.77
2018-09-02T06:12:24.908Z,102417.49
2018-09-02T06:14:52.996Z,102409.26
2018-09-02T06:17:21.214Z,102405.16
2018-09-02T06:19:49.216Z,102410.28
2018-09-02T06:22:17.304Z,102408.84
2018-09-02T06:24:45.391Z,102408.66
2018-09-02T06:27:13.544Z,102410.80
2018-09-02T06:29:42.211Z,102404.56
2018-09-02T06:32:10.342Z,102404.58
2018-09-02T06:34:38.450Z,102406.41
2018-09-02T06:37:06.575Z,102411.75
2018-09-02T06:39:34.679Z,102408.08
2018-09-02T06:42:02.781Z,102402.84
2018-09-02T06:44:30.894Z,102400.59
2018-09-02T06:46:59.011Z,102408.31
2018-09-02T06:49:27.132Z,102407.59
2018-09-02T06:51:55.287Z,102405.29
2018-09-02T06:54:23.575Z,102402.91
2018-09-02T06:56:51.709Z,102404.54
2018-09-02T06:59:19.815Z,102404.88
2018-09-02T07:01:47.954Z,102408.95
2018-09-02T07:04:16.124Z,102407.76
2018-09-02T07:06:44.319Z,102406.34
2018-09-02T07:09:12.406Z,102403.77
2018-09-02T07:11:40.536Z,102408.35
2018-09-02T07:14:08.659Z,102401.39
2018-09-02T07:16:36.781Z,102401.54
2018-09-02T07:19:04.909Z,102397.66
2018-09-02T07:21:33.054Z,102398.28
2018-09-02T07:24:01.209Z,102402.77
2018-09-02T07:26:29.317Z,102401.23
2018-09-02T07:28:57.403Z,102396.92
2018-09-02T07:31:25.583Z,102403.88
2018-09-02T07:33:54.252Z,102402.83
2018-09-02T07:36:22.367Z,102402.27
2018-09-02T07:38:50.469Z,102400.80
2018-09-02T07:41:18.599Z,102397.47
2018-09-02T07:43:46.749Z,102399.75
2018-09-02T07:46:14.854Z,102408.61
2018-09-02T07:48:42.956Z,102402.90
2018-09-02T07:51:11.075Z,102407.33
2018-09-02T07:53:39.196Z,102404.76
2018-09-02T07:56:07.315Z,102404.91
2018-09-02T07:58:35.449Z,102403.87
2018-09-02T08:01:03.534Z,102401.75
2018-09-02T08:03:31.656Z,102395.52
2018-09-02T08:05:59.772Z,102396.24
2018-09-02T08:08:27.918Z,102393.77
2018-09-02T08:10:56.025Z,102394.70
2018-09-02T08:13:24.170Z,102395.42
2018-09-02T08:15:52.432Z,102398.92
2018-09-02T08:18:20.531Z,102399.81
2018-09-02T08:20:48.659Z,102403.55
2018-09-02T08:23:16.733Z,102397.55
2018-09-02T08:25:44.825Z,102403.31
2018-09-02T08:28:13.954Z,102410.62
2018-09-02T08:30:42.060Z,102402.84
2018-09-02T08:33:10.263Z,102405.97
2018-09-02T08:35:38.275Z,102402.55
2018-09-02T08:38:06.370Z,102404.77
2018-09-02T08:40:34.451Z,102399.48
2018-09-02T08:43:02.552Z,102394.84
2018-09-02T08:45:30.708Z,102400.30
2018-09-02T08:47:58.877Z,102397.77
2018-09-02T08:51:30.269Z,102396.78
2018-09-02T08:53:58.377Z,102394.45
2018-09-02T08:56:26.535Z,102391.66
2018-09-02T08:58:54.710Z,102393.40
2018-09-02T09:01:22.827Z,102395.87
2018-09-02T09:03:51.303Z,102398.19
2018-09-02T09:06:19.409Z,102400.75
2018-09-02T09:08:47.909Z,102398.95
2018-09-02T09:11:15.639Z,102395.08
2018-09-02T09:13:43.731Z,102397.72
2018-09-02T09:16:11.820Z,102393.98
2018-09-02T09:18:39.929Z,102391.80
2018-09-02T09:21:08.264Z,102392.86
2018-09-02T09:23:36.378Z,102388.33
2018-09-02T09:26:04.480Z,102383.44
2018-09-02T09:28:32.578Z,102383.72
2018-09-02T09:31:00.732Z,102381.45
2018-09-02T09:33:28.903Z,102377.44
2018-09-02T09:35:57.588Z,102373.88
2018-09-02T09:38:25.687Z,102370.41
2018-09-02T09:40:53.831Z,102365.48
2018-09-02T09:43:21.975Z,102364.23
2018-09-02T09:45:50.072Z,102365.19
2018-09-02T09:48:18.165Z,102364.00
2018-09-02T09:50:46.305Z,102362.61
2018-09-02T09:53:14.362Z,102374.31
2018-09-02T09:55:42.586Z,102376.02
2018-09-02T09:58:10.619Z,102364.95
2018-09-02T10:00:44.259Z,102364.31
2018-09-02T10:03:12.403Z,102366.59
2018-09-02T10:05:40.567Z,102360.84
2018-09-02T10:08:08.648Z,102358.02
2018-09-02T10:10:36.862Z,102358.03
2018-09-02T10:13:05.205Z,102352.02
2018-09-02T10:15:33.333Z,102361.99
2018-09-02T10:18:01.623Z,102352.25
2018-09-02T10:20:29.825Z,102351.66
2018-09-02T10:22:57.913Z,102342.33
2018-09-02T10:25:25.996Z,102345.70
2018-09-02T10:27:54.087Z,102347.01
2018-09-02T10:30:22.213Z,102342.33
2018-09-02T10:32:50.364Z,102336.60
2018-09-02T10:35:18.724Z,102340.86
2018-09-02T10:37:46.951Z,102340.81
2018-09-02T10:40:15.033Z,102335.80
2018-09-02T10:42:43.139Z,102334.05
2018-09-02T10:45:11.241Z,102327.03
2018-09-02T10:47:39.339Z,102329.36
2018-09-02T10:50:08.511Z,102319.90
2018-09-02T10:52:36.676Z,102318.12
2018-09-02T10:55:04.779Z,102314.17
2018-09-02T10:57:32.921Z,102305.76
2018-09-02T11:00:01.004Z,102308.95
2018-09-02T11:02:29.111Z,102306.48
2018-09-02T11:04:57.225Z,102296.16
2018-09-02T11:07:25.349Z,102300.50
2018-09-02T11:09:53.423Z,102290.37
2018-09-02T11:12:21.582Z,102292.47
2018-09-02T11:14:49.706Z,102297.81
2018-09-02T11:17:17.811Z,102303.56
2018-09-02T11:19:45.940Z,102302.91
2018-09-02T11:22:14.029Z,102305.46
2018-09-02T11:24:42.200Z,102299.73
2018-09-02T11:27:10.288Z,102291.03
2018-09-02T11:29:38.391Z,102294.28
2018-09-02T11:32:06.593Z,102289.84
2018-09-02T11:34:34.699Z,102290.32
2018-09-02T11:37:02.915Z,102298.67
2018-09-02T11:39:31.009Z,102286.23
2018-09-02T11:41:59.087Z,102287.59
2018-09-02T11:44:27.214Z,102286.29
2018-09-02T11:46:55.362Z,102287.53
2018-09-02T11:49:23.418Z,102284.76
2018-09-02T11:51:51.546Z,102275.70
2018-09-02T11:54:19.650Z,102277.05
2018-09-02T11:56:47.775Z,102276.16
2018-09-02T11:59:15.883Z,102277.97
2018-09-02T12:01:43.991Z,102272.13
2018-09-02T12:04:12.076Z,102273.91
2018-09-02T12:06:40.239Z,102265.11
2018-09-02T12:09:09.010Z,102266.89
2018-09-02T12:11:37.645Z,102263.30
2018-09-02T12:14:05.804Z,102272.86
2018-09-02T12:16:33.969Z,102266.94
2018-09-02T12:19:02.126Z,102265.70
2018-09-02T12:21:30.248Z,102262.70
2018-09-02T12:23:58.454Z,102257.26
2018-09-02T12:26:26.568Z,102255.79
2018-09-02T12:28:54.739Z,102246.13
2018-09-02T12:31:22.902Z,102244.91
2018-09-02T12:38:46.550Z,102247.30
2018-09-02T12:41:14.658Z,102238.23
2018-09-02T12:43:42.776Z,102234.03
2018-09-02T12:46:10.930Z,102229.91
2018-09-02T12:48:39.061Z,102228.34
2018-09-02T12:51:07.211Z,102227.27
2018-09-02T12:53:35.469Z,102224.48
2018-09-02T12:56:03.607Z,102231.39
2018-09-02T12:58:31.700Z,102228.12
2018-09-02T13:01:06.582Z,102224.13
2018-09-02T13:03:34.691Z,102220.59
2018-09-02T13:06:02.817Z,102211.97
2018-09-02T13:08:31.159Z,102217.03
2018-09-02T13:10:59.278Z,102219.20
2018-09-02T13:13:27.379Z,102208.44
2018-09-02T13:15:55.534Z,102214.21
2018-09-02T13:18:23.730Z,102210.48
2018-09-02T13:20:51.864Z,102207.61
2018-09-02T13:23:19.992Z,102200.36
2018-09-02T13:25:48.120Z,102196.39
2018-09-02T13:28:16.258Z,102191.52
2018-09-02T13:30:44.377Z,102185.06
2018-09-02T13:33:12.487Z,102183.37
2018-09-02T13:35:40.599Z,102182.83
2018-09-02T13:38:08.740Z,102177.47
2018-09-02T13:40:36.837Z,102178.21
2018-09-02T13:43:05.415Z,102177.73
2018-09-02T13:45:33.514Z,102174.07
2018-09-02T13:48:01.605Z,102177.23
2018-09-02T13:50:29.918Z,102170.56
2018-09-02T13:52:58.025Z,102171.30
2018-09-02T13:55:26.115Z,102170.69
2018-09-02T13:57:54.235Z,102158.57
2018-09-02T14:00:22.318Z,102163.38
2018-09-02T14:02:50.445Z,102157.31
2018-09-02T14:05:18.519Z,102155.98
2018-09-02T14:07:46.704Z,102152.09
2018-09-02T14:10:14.914Z,102153.48
2018-09-02T14:12:43.064Z,102154.21
2018-09-02T14:15:11.186Z,102148.77
2018-09-02T14:17:39.386Z,102151.91
2018-09-02T14:20:07.485Z,102147.91
2018-09-02T14:22:35.706Z,102134.10
2018-09-02T14:25:03.814Z,102140.23
2018-09-02T14:27:31.954Z,102133.42
2018-09-02T14:30:00.079Z,102123.23
2018-09-02T14:32:28.177Z,102120.55
2018-09-02T14:34:56.337Z,102119.70
2018-09-02T14:37:24.487Z,102117.39
2018-09-02T14:39:52.632Z,102114.95
2018-09-02T14:42:20.719Z,102113.02
2018-09-02T14:44:48.834Z,102120.41
2018-09-02T14:47:16.972Z,102113.67
2018-09-02T14:49:45.076Z,102113.07
2018-09-02T14:52:13.269Z,102112.46
2018-09-02T14:54:41.455Z,102113.47
2018-09-02T14:57:09.604Z,102112.53
2018-09-02T14:59:37.861Z,102111.45
2018-09-02T15:02:06.043Z,102106.72
2018-09-02T15:04:34.208Z,102099.50
2018-09-02T15:07:02.455Z,102103.45
2018-09-02T15:09:30.649Z,102105.64
2018-09-02T15:11:58.931Z,102104.11
2018-09-02T15:14:27.175Z,102103.89
2018-09-02T15:16:55.329Z,102097.47
2018-09-02T15:19:23.581Z,102089.70
2018-09-02T15:21:51.845Z,102093.21
2018-09-02T15:24:20.205Z,102092.84
2018-09-02T15:26:48.369Z,102090.21
2018-09-02T15:29:16.499Z,102089.12
2018-09-02T15:31:44.638Z,102090.46
2018-09-02T15:34:12.773Z,102076.44
2018-09-02T15:36:40.874Z,102078.95
2018-09-02T15:39:10.138Z,102070.87
2018-09-02T15:41:38.592Z,102073.77
2018-09-02T15:44:06.998Z,102071.72
2018-09-02T15:46:35.049Z,102071.82
2018-09-02T15:49:03.171Z,102075.17
2018-09-02T15:51:31.317Z,102077.43
2018-09-02T15:53:59.414Z,102074.19
2018-09-02T15:56:27.597Z,102073.91
2018-09-02T15:58:55.720Z,102070.50
2018-09-02T16:01:23.895Z,102062.41
2018-09-02T16:03:52.098Z,102060.23
2018-09-02T16:06:20.228Z,102065.92
2018-09-02T16:08:48.401Z,102058.74
2018-09-02T16:11:16.520Z,102052.07
2018-09-02T16:13:44.641Z,102055.34
2018-09-02T16:16:12.762Z,102054.98
2018-09-02T16:18:40.889Z,102052.95
2018-09-02T16:21:09.070Z,102051.25
2018-09-02T16:23:37.180Z,102045.54
2018-09-02T16:26:05.304Z,102050.13
2018-09-02T16:28:33.459Z,102044.70
2018-09-02T16:31:01.610Z,102050.36
2018-09-02T16:33:29.740Z,102040.91
2018-09-02T16:35:57.910Z,102039.92
2018-09-02T16:38:25.991Z,102042.35
2018-09-02T16:40:54.101Z,102041.88
2018-09-02T16:43:22.173Z,102037.04
2018-09-02T16:45:50.297Z,102032.68
2018-09-02T16:48:18.511Z,102032.45
2018-09-02T16:50:46.647Z,102034.61
2018-09-02T16:53:14.882Z,102028.11
2018-09-02T16:58:17.323Z,102026.20
2018-09-02T17:00:45.483Z,102023.69
2018-09-02T17:03:13.586Z,102022.55
2018-09-02T17:05:41.772Z,102020.89
2018-09-02T17:08:09.910Z,102013.26
2018-09-02T17:10:37.988Z,102013.63
2018-09-02T17:13:07.104Z,102013.63
2018-09-02T17:15:35.240Z,102013.52
2018-09-02T17:18:03.427Z,102019.53
2018-09-02T17:20:38.077Z,102007.88
2018-09-02T17:23:11.104Z,102010.91
2018-09-02T17:25:39.599Z,102012.20
2018-09-02T17:28:07.707Z,102018.28
2018-09-02T17:30:36.204Z,102016.80
2018-09-02T17:33:04.560Z,102020.89
2018-09-02T17:35:32.622Z,102030.52
2018-09-02T17:38:00.776Z,102024.28
2018-09-02T17:40:28.907Z,102023.58
2018-09-02T17:42:57.044Z,102022.67
2018-09-02T17:45:25.199Z,102022.52
2018-09-02T17:47:53.515Z,102017.73
2018-09-02T17:50:21.724Z,102017.26
2018-09-02T17:52:49.879Z,102015.82
2018-09-02T17:55:18.014Z,102011.69
2018-09-02T17:57:46.194Z,102015.12
2018-09-02T18:00:19.584Z,102008.34
2018-09-02T18:02:47.730Z,102006.06
2018-09-02T18:05:16.131Z,102010.91
2018-09-02T18:07:44.235Z,102014.56
2018-09-02T18:10:12.447Z,102010.21
2018-09-02T18:12:40.581Z,102007.98
2018-09-02T18:15:08.692Z,102019.05
2018-09-02T18:17:36.814Z,102014.67
2018-09-02T18:20:05.010Z,102019.50
2018-09-02T18:22:33.119Z,102022.92
2018-09-02T18:25:01.270Z,102019.34
2018-09-02T18:27:31.733Z,102028.73
2018-09-02T18:30:00.023Z,102019.84
2018-09-02T18:32:29.821Z,102028.75
2018-09-02T18:34:58.788Z,102029.57
2018-09-02T18:37:26.895Z,102040.66
2018-09-02T18:39:55.784Z,102034.02
2018-09-02T18:42:23.934Z,102035.02
2018-09-02T18:44:52.072Z,102032.70
2018-09-02T18:47:20.309Z,102033.42
2018-09-02T18:49:48.470Z,102035.19
2018-09-02T18:52:17.363Z,102027.84
2018-09-02T18:54:45.511Z,102038.92
2018-09-02T18:57:13.643Z,102032.19
2018-09-02T18:59:41.746Z,102036.16
2018-09-02T19:02:10.598Z,102032.12
2018-09-02T19:04:38.767Z,102030.87
2018-09-02T19:07:07.479Z,102033.33
2018-09-02T19:09:35.749Z,102033.41
2018-09-02T19:12:03.866Z,102027.35
2018-09-02T19:14:32.055Z,102027.63
2018-09-02T19:17:00.190Z,102023.68
2018-09-02T19:19:28.299Z,102027.88
2018-09-02T19:21:56.403Z,102027.16
2018-09-02T19:24:24.667Z,102024.13
2018-09-02T19:26:52.778Z,102024.55
2018-09-02T19:29:20.935Z,102024.45
2018-09-02T19:31:49.167Z,102028.15
2018-09-02T19:34:17.288Z,102028.88
2018-09-02T19:36:45.386Z,102020.00
2018-09-02T19:39:13.473Z,102020.75
2018-09-02T19:41:41.797Z,102019.63
2018-09-02T19:44:09.915Z,102017.78
2018-09-02T19:46:38.007Z,102022.84
2018-09-02T19:49:06.608Z,102016.37
2018-09-02T19:51:34.727Z,102012.50
2018-09-02T19:54:02.943Z,102010.34
2018-09-02T19:56:31.002Z,102007.88
2018-09-02T19:58:59.175Z,102003.44
2018-09-02T20:01:27.263Z,102007.11
2018-09-02T20:08:55.180Z,101992.37
2018-09-02T20:11:23.278Z,101990.40
2018-09-02T20:13:51.355Z,101991.08
2018-09-02T20:16:19.448Z,101983.20
2018-09-02T20:18:47.555Z,101981.70
2018-09-02T20:21:15.631Z,101992.61
2018-09-02T20:23:43.763Z,101985.72
2018-09-02T20:26:11.895Z,101992.24
2018-09-02T20:28:39.997Z,101991.67
2018-09-02T20:31:08.112Z,101988.27
2018-09-02T20:33:36.239Z,101979.95
2018-09-02T20:36:04.351Z,101982.03
2018-09-02T20:38:32.584Z,101988.56
2018-09-02T20:41:00.760Z,101983.88
2018-09-02T20:43:28.858Z,101987.38
2018-09-02T20:45:56.952Z,101989.70
2018-09-02T20:48:25.011Z,101987.66
2018-09-02T20:50:53.123Z,101982.34
2018-09-02T20:53:21.236Z,101979.45
2018-09-02T20:55:49.345Z,101978.41
2018-09-02T20:58:17.463Z,101981.53
2018-09-02T21:00:45.538Z,101975.02
2018-09-02T21:03:13.653Z,101978.89
2018-09-02T21:05:41.839Z,101983.33
2018-09-02T21:08:09.954Z,101980.02
2018-09-02T21:10:38.082Z,101977.75
2018-09-02T21:13:06.216Z,101980.97
2018-09-02T21:15:34.355Z,101978.76
2018-09-02T21:18:03.125Z,101975.02
2018-09-02T21:20:31.235Z,101982.47
2018-09-02T21:22:59.326Z,101979.95
2018-09-02T21:25:27.451Z,101973.53
2018-09-02T21:27:55.581Z,101968.41
2018-09-02T21:30:23.709Z,101975.20
2018-09-02T21:32:51.812Z,101970.23
2018-09-02T21:35:19.965Z,101977.30
2018-09-02T21:37:48.110Z,101975.23
2018-09-02T21:40:16.325Z,101977.02
2018-09-02T21:42:44.465Z,101968.24
2018-09-02T21:45:12.579Z,101970.33
2018-09-02T21:47:40.640Z,101971.93
2018-09-02T21:50:09.165Z,101970.15
2018-09-02T21:52:37.298Z,101969.59
2018-09-02T21:55:05.566Z,101967.13
2018-09-02T21:57:33.765Z,101960.91
2018-09-02T22:00:02.055Z,101962.30
2018-09-02T22:02:30.164Z,101958.33
2018-09-02T22:04:58.371Z,101956.63
2018-09-02T22:07:26.550Z,101953.13
2018-09-02T22:09:54.660Z,101957.02
2018-09-02T22:12:22.696Z,101955.78
2018-09-02T22:14:50.777Z,101948.70
2018-09-02T22:17:18.885Z,101950.02
2018-09-02T22:19:46.973Z,101950.21
2018-09-02T22:22:15.084Z,101946.91
2018-09-02T22:24:43.187Z,101952.07
2018-09-02T22:27:11.328Z,101950.56
2018-09-02T22:29:39.450Z,101949.65
2018-09-02T22:32:07.573Z,101949.61
2018-09-02T22:34:35.719Z,101947.05
2018-09-02T22:37:03.839Z,101942.20
2018-09-02T22:39:31.962Z,101941.95
2018-09-02T22:42:00.178Z,101937.95
2018-09-02T22:44:28.187Z,101940.44
2018-09-02T22:46:56.310Z,101938.94
2018-09-02T22:49:24.464Z,101935.25
2018-09-02T22:51:52.564Z,101927.80
2018-09-02T22:54:20.939Z,101926.28
2018-09-02T22:56:49.060Z,101928.16
2018-09-02T22:59:17.136Z,101927.13
2018-09-02T23:01:45.221Z,101923.44
2018-09-02T23:04:13.393Z,101918.16
2018-09-02T23:06:41.511Z,101913.72
2018-09-02T23:09:09.710Z,101915.51
2018-09-02T23:11:37.849Z,101906.49
2018-09-02T23:14:05.961Z,101897.03
2018-09-02T23:16:34.603Z,101899.60
2018-09-02T23:19:03.169Z,101889.69
2018-09-02T23:21:31.335Z,101894.41
2018-09-02T23:23:59.435Z,101885.30
2018-09-02T23:26:27.531Z,101881.34
2018-09-02T23:28:55.649Z,101873.13
2018-09-02T23:31:23.748Z,101870.78
2018-09-02T23:33:52.583Z,101873.15
2018-09-02T23:36:20.960Z,101870.59
2018-09-02T23:38:49.065Z,101868.98
2018-09-02T23:41:17.168Z,101870.73
2018-09-02T23:43:45.356Z,101863.77
2018-09-02T23:46:13.443Z,101864.41
2018-09-02T23:48:41.586Z,101865.96
2018-09-02T23:51:09.751Z,101858.70
2018-09-02T23:53:37.925Z,101851.88
2018-09-02T23:56:06.171Z,101848.75
2018-09-02T23:58:34.365Z,101849.44
